sensor_id;sensor_type;location;lat;lon;timestamp;P1;durP1;ratioP1;P2;durP2;ratioP2
10890;SDS011;5498;50.928;11.598;2022-12-18T00:02:50;24.03;;;10.87;;
10890;SDS011;5498;50.928;11.598;2022-12-18T00:05:52;20.13;;;9.73;;
10890;SDS011;5498;50.928;11.598;2022-12-18T00:08:55;19.80;;;8.77;;
10890;SDS011;5498;50.928;11.598;2022-12-18T00:11:59;25.40;;;8.93;;
10890;SDS011;5498;50.928;11.598;2022-12-18T00:15:01;22.53;;;9.77;;
10890;SDS011;5498;50.928;11.598;2022-12-18T00:18:05;18.40;;;8.60;;
10890;SDS011;5498;50.928;11.598;2022-12-18T00:21:08;17.53;;;8.60;;
10890;SDS011;5498;50.928;11.598;2022-12-18T00:24:12;18.20;;;8.27;;
10890;SDS011;5498;50.928;11.598;2022-12-18T00:27:15;17.37;;;8.20;;
10890;SDS011;5498;50.928;11.598;2022-12-18T00:30:18;18.80;;;8.50;;
10890;SDS011;5498;50.928;11.598;2022-12-18T00:33:20;23.70;;;8.10;;
10890;SDS011;5498;50.928;11.598;2022-12-18T00:36:22;15.00;;;7.67;;
10890;SDS011;5498;50.928;11.598;2022-12-18T00:39:26;18.37;;;8.90;;
10890;SDS011;5498;50.928;11.598;2022-12-18T00:42:30;19.30;;;8.83;;
10890;SDS011;5498;50.928;11.598;2022-12-18T00:45:50;22.60;;;9.37;;
10890;SDS011;5498;50.928;11.598;2022-12-18T00:48:53;14.93;;;8.13;;
10890;SDS011;5498;50.928;11.598;2022-12-18T00:51:55;14.83;;;8.53;;
10890;SDS011;5498;50.928;11.598;2022-12-18T00:54:57;16.07;;;8.37;;
10890;SDS011;5498;50.928;11.598;2022-12-18T00:58:01;18.90;;;8.57;;
10890;SDS011;5498;50.928;11.598;2022-12-18T01:01:03;13.43;;;7.57;;
10890;SDS011;5498;50.928;11.598;2022-12-18T01:04:05;18.03;;;9.20;;
10890;SDS011;5498;50.928;11.598;2022-12-18T01:07:07;17.10;;;7.40;;
10890;SDS011;5498;50.928;11.598;2022-12-18T01:10:10;16.57;;;7.67;;
10890;SDS011;5498;50.928;11.598;2022-12-18T01:13:15;16.83;;;8.60;;
10890;SDS011;5498;50.928;11.598;2022-12-18T01:16:17;17.40;;;7.80;;
10890;SDS011;5498;50.928;11.598;2022-12-18T01:19:20;16.47;;;8.03;;
10890;SDS011;5498;50.928;11.598;2022-12-18T01:22:22;22.27;;;6.97;;
10890;SDS011;5498;50.928;11.598;2022-12-18T01:25:24;17.37;;;7.37;;
10890;SDS011;5498;50.928;11.598;2022-12-18T01:28:27;12.93;;;6.37;;
10890;SDS011;5498;50.928;11.598;2022-12-18T01:31:30;12.23;;;6.27;;
10890;SDS011;5498;50.928;11.598;2022-12-18T01:34:34;17.80;;;7.27;;
10890;SDS011;5498;50.928;11.598;2022-12-18T01:37:36;13.37;;;7.60;;
10890;SDS011;5498;50.928;11.598;2022-12-18T01:40:38;15.17;;;6.90;;
10890;SDS011;5498;50.928;11.598;2022-12-18T01:43:47;12.57;;;7.03;;
10890;SDS011;5498;50.928;11.598;2022-12-18T01:46:52;17.83;;;7.07;;
10890;SDS011;5498;50.928;11.598;2022-12-18T01:49:55;15.23;;;7.93;;
10890;SDS011;5498;50.928;11.598;2022-12-18T01:53:02;14.07;;;6.97;;
10890;SDS011;5498;50.928;11.598;2022-12-18T01:56:11;13.83;;;7.20;;
10890;SDS011;5498;50.928;11.598;2022-12-18T01:59:16;17.90;;;6.83;;
10890;SDS011;5498;50.928;11.598;2022-12-18T02:02:18;10.77;;;6.87;;
10890;SDS011;5498;50.928;11.598;2022-12-18T02:05:23;12.77;;;6.50;;
10890;SDS011;5498;50.928;11.598;2022-12-18T02:08:38;15.10;;;7.27;;
10890;SDS011;5498;50.928;11.598;2022-12-18T02:11:48;12.77;;;6.87;;
10890;SDS011;5498;50.928;11.598;2022-12-18T02:15:00;18.07;;;6.30;;
10890;SDS011;5498;50.928;11.598;2022-12-18T02:18:10;11.10;;;6.37;;
10890;SDS011;5498;50.928;11.598;2022-12-18T02:21:18;11.80;;;5.77;;
10890;SDS011;5498;50.928;11.598;2022-12-18T02:24:31;16.37;;;6.90;;
10890;SDS011;5498;50.928;11.598;2022-12-18T02:27:42;10.73;;;6.43;;
10890;SDS011;5498;50.928;11.598;2022-12-18T02:30:47;12.20;;;6.13;;
10890;SDS011;5498;50.928;11.598;2022-12-18T02:33:51;17.20;;;7.27;;
10890;SDS011;5498;50.928;11.598;2022-12-18T02:36:56;12.23;;;6.30;;
10890;SDS011;5498;50.928;11.598;2022-12-18T02:40:02;11.47;;;5.60;;
10890;SDS011;5498;50.928;11.598;2022-12-18T02:43:08;13.53;;;6.50;;
10890;SDS011;5498;50.928;11.598;2022-12-18T02:46:31;10.10;;;5.30;;
10890;SDS011;5498;50.928;11.598;2022-12-18T02:49:38;10.87;;;5.73;;
10890;SDS011;5498;50.928;11.598;2022-12-18T02:52:54;15.37;;;6.10;;
10890;SDS011;5498;50.928;11.598;2022-12-18T02:56:07;11.40;;;5.70;;
10890;SDS011;5498;50.928;11.598;2022-12-18T02:59:17;16.50;;;6.80;;
10890;SDS011;5498;50.928;11.598;2022-12-18T03:02:28;12.40;;;6.67;;
10890;SDS011;5498;50.928;11.598;2022-12-18T03:05:39;11.10;;;6.27;;
10890;SDS011;5498;50.928;11.598;2022-12-18T03:08:47;10.77;;;5.30;;
10890;SDS011;5498;50.928;11.598;2022-12-18T03:11:56;9.53;;;5.57;;
10890;SDS011;5498;50.928;11.598;2022-12-18T03:15:24;14.73;;;6.40;;
10890;SDS011;5498;50.928;11.598;2022-12-18T03:18:30;13.37;;;6.83;;
10890;SDS011;5498;50.928;11.598;2022-12-18T03:21:38;8.60;;;5.13;;
10890;SDS011;5498;50.928;11.598;2022-12-18T03:24:44;13.03;;;6.97;;
10890;SDS011;5498;50.928;11.598;2022-12-18T03:27:49;19.03;;;5.87;;
10890;SDS011;5498;50.928;11.598;2022-12-18T03:30:56;13.23;;;5.13;;
10890;SDS011;5498;50.928;11.598;2022-12-18T03:34:02;10.83;;;5.83;;
10890;SDS011;5498;50.928;11.598;2022-12-18T03:37:11;8.40;;;5.33;;
10890;SDS011;5498;50.928;11.598;2022-12-18T03:40:12;18.70;;;7.37;;
10890;SDS011;5498;50.928;11.598;2022-12-18T03:43:16;11.93;;;6.13;;
10890;SDS011;5498;50.928;11.598;2022-12-18T03:46:30;13.50;;;5.80;;
10890;SDS011;5498;50.928;11.598;2022-12-18T03:49:41;12.43;;;6.13;;
10890;SDS011;5498;50.928;11.598;2022-12-18T03:52:49;10.10;;;6.20;;
10890;SDS011;5498;50.928;11.598;2022-12-18T03:55:59;11.67;;;6.40;;
10890;SDS011;5498;50.928;11.598;2022-12-18T03:59:03;11.40;;;6.20;;
10890;SDS011;5498;50.928;11.598;2022-12-18T04:02:08;12.40;;;5.70;;
10890;SDS011;5498;50.928;11.598;2022-12-18T04:05:11;11.07;;;5.83;;
10890;SDS011;5498;50.928;11.598;2022-12-18T04:08:14;17.87;;;5.83;;
10890;SDS011;5498;50.928;11.598;2022-12-18T04:11:16;13.20;;;6.20;;
10890;SDS011;5498;50.928;11.598;2022-12-18T04:14:18;13.87;;;6.10;;
10890;SDS011;5498;50.928;11.598;2022-12-18T04:17:22;7.20;;;4.20;;
10890;SDS011;5498;50.928;11.598;2022-12-18T04:20:25;13.17;;;5.60;;
10890;SDS011;5498;50.928;11.598;2022-12-18T04:23:27;13.77;;;6.23;;
10890;SDS011;5498;50.928;11.598;2022-12-18T04:26:29;13.70;;;5.83;;
10890;SDS011;5498;50.928;11.598;2022-12-18T04:29:31;8.27;;;4.87;;
10890;SDS011;5498;50.928;11.598;2022-12-18T04:32:34;9.57;;;4.77;;
10890;SDS011;5498;50.928;11.598;2022-12-18T04:35:36;9.73;;;5.47;;
10890;SDS011;5498;50.928;11.598;2022-12-18T04:38:38;17.07;;;6.03;;
10890;SDS011;5498;50.928;11.598;2022-12-18T04:41:40;6.77;;;4.07;;
10890;SDS011;5498;50.928;11.598;2022-12-18T04:44:42;18.37;;;5.57;;
10890;SDS011;5498;50.928;11.598;2022-12-18T04:47:46;10.53;;;5.63;;
10890;SDS011;5498;50.928;11.598;2022-12-18T04:50:48;11.07;;;5.63;;
10890;SDS011;5498;50.928;11.598;2022-12-18T04:53:50;12.87;;;4.60;;
10890;SDS011;5498;50.928;11.598;2022-12-18T04:56:52;14.07;;;5.87;;
10890;SDS011;5498;50.928;11.598;2022-12-18T04:59:54;13.17;;;4.90;;
10890;SDS011;5498;50.928;11.598;2022-12-18T05:02:57;9.70;;;5.33;;
10890;SDS011;5498;50.928;11.598;2022-12-18T05:06:02;9.40;;;5.50;;
10890;SDS011;5498;50.928;11.598;2022-12-18T05:09:04;9.80;;;4.63;;
10890;SDS011;5498;50.928;11.598;2022-12-18T05:12:06;11.47;;;5.73;;
10890;SDS011;5498;50.928;11.598;2022-12-18T05:15:09;9.67;;;5.60;;
10890;SDS011;5498;50.928;11.598;2022-12-18T05:18:12;7.87;;;5.20;;
10890;SDS011;5498;50.928;11.598;2022-12-18T05:21:14;12.67;;;5.23;;
10890;SDS011;5498;50.928;11.598;2022-12-18T05:24:16;6.97;;;4.37;;
10890;SDS011;5498;50.928;11.598;2022-12-18T05:27:18;12.83;;;4.73;;
10890;SDS011;5498;50.928;11.598;2022-12-18T05:30:20;8.57;;;4.53;;
10890;SDS011;5498;50.928;11.598;2022-12-18T05:33:24;7.63;;;5.03;;
10890;SDS011;5498;50.928;11.598;2022-12-18T05:36:28;12.83;;;5.37;;
10890;SDS011;5498;50.928;11.598;2022-12-18T05:39:30;8.03;;;5.20;;
10890;SDS011;5498;50.928;11.598;2022-12-18T05:42:32;10.67;;;5.30;;
10890;SDS011;5498;50.928;11.598;2022-12-18T05:45:36;11.40;;;6.30;;
10890;SDS011;5498;50.928;11.598;2022-12-18T05:48:40;12.90;;;5.83;;
10890;SDS011;5498;50.928;11.598;2022-12-18T05:51:42;11.77;;;5.03;;
10890;SDS011;5498;50.928;11.598;2022-12-18T05:54:44;11.40;;;5.17;;
10890;SDS011;5498;50.928;11.598;2022-12-18T05:57:46;13.93;;;5.47;;
10890;SDS011;5498;50.928;11.598;2022-12-18T06:00:48;5.90;;;4.10;;
10890;SDS011;5498;50.928;11.598;2022-12-18T06:03:51;10.00;;;5.40;;
10890;SDS011;5498;50.928;11.598;2022-12-18T06:06:53;8.40;;;5.00;;
10890;SDS011;5498;50.928;11.598;2022-12-18T06:09:55;11.27;;;5.17;;
10890;SDS011;5498;50.928;11.598;2022-12-18T06:12:57;8.43;;;5.50;;
10890;SDS011;5498;50.928;11.598;2022-12-18T06:16:01;7.80;;;4.37;;
10890;SDS011;5498;50.928;11.598;2022-12-18T06:19:05;5.73;;;4.20;;
10890;SDS011;5498;50.928;11.598;2022-12-18T06:22:08;11.13;;;4.60;;
10890;SDS011;5498;50.928;11.598;2022-12-18T06:25:10;6.27;;;4.13;;
10890;SDS011;5498;50.928;11.598;2022-12-18T06:28:12;7.33;;;3.97;;
10890;SDS011;5498;50.928;11.598;2022-12-18T06:31:14;9.57;;;5.03;;
10890;SDS011;5498;50.928;11.598;2022-12-18T06:34:18;10.00;;;4.40;;
10890;SDS011;5498;50.928;11.598;2022-12-18T06:37:19;7.93;;;4.60;;
10890;SDS011;5498;50.928;11.598;2022-12-18T06:40:24;11.13;;;4.07;;
10890;SDS011;5498;50.928;11.598;2022-12-18T06:43:26;8.53;;;4.73;;
10890;SDS011;5498;50.928;11.598;2022-12-18T06:46:28;14.57;;;5.17;;
10890;SDS011;5498;50.928;11.598;2022-12-18T06:49:31;11.23;;;5.67;;
10890;SDS011;5498;50.928;11.598;2022-12-18T06:52:33;8.37;;;3.30;;
10890;SDS011;5498;50.928;11.598;2022-12-18T06:55:36;16.17;;;4.83;;
10890;SDS011;5498;50.928;11.598;2022-12-18T06:58:38;10.13;;;4.23;;
10890;SDS011;5498;50.928;11.598;2022-12-18T07:01:41;9.07;;;4.13;;
10890;SDS011;5498;50.928;11.598;2022-12-18T07:04:46;8.93;;;3.90;;
10890;SDS011;5498;50.928;11.598;2022-12-18T07:07:51;6.33;;;4.17;;
10890;SDS011;5498;50.928;11.598;2022-12-18T07:10:53;6.13;;;3.40;;
10890;SDS011;5498;50.928;11.598;2022-12-18T07:13:55;6.53;;;3.87;;
10890;SDS011;5498;50.928;11.598;2022-12-18T07:16:57;9.73;;;4.60;;
10890;SDS011;5498;50.928;11.598;2022-12-18T07:20:01;7.60;;;4.60;;
10890;SDS011;5498;50.928;11.598;2022-12-18T07:23:03;6.83;;;3.47;;
10890;SDS011;5498;50.928;11.598;2022-12-18T07:26:07;14.77;;;4.90;;
10890;SDS011;5498;50.928;11.598;2022-12-18T07:29:11;9.17;;;5.23;;
10890;SDS011;5498;50.928;11.598;2022-12-18T07:32:13;8.93;;;4.60;;
10890;SDS011;5498;50.928;11.598;2022-12-18T07:35:16;6.27;;;4.10;;
10890;SDS011;5498;50.928;11.598;2022-12-18T07:38:18;8.10;;;4.10;;
10890;SDS011;5498;50.928;11.598;2022-12-18T07:41:21;13.00;;;5.03;;
10890;SDS011;5498;50.928;11.598;2022-12-18T07:44:23;9.10;;;4.73;;
10890;SDS011;5498;50.928;11.598;2022-12-18T07:47:25;14.80;;;6.43;;
10890;SDS011;5498;50.928;11.598;2022-12-18T07:50:29;14.73;;;5.73;;
10890;SDS011;5498;50.928;11.598;2022-12-18T07:53:31;12.53;;;4.73;;
10890;SDS011;5498;50.928;11.598;2022-12-18T07:56:35;6.57;;;4.30;;
10890;SDS011;5498;50.928;11.598;2022-12-18T07:59:37;9.00;;;4.87;;
10890;SDS011;5498;50.928;11.598;2022-12-18T08:02:39;8.67;;;4.30;;
10890;SDS011;5498;50.928;11.598;2022-12-18T08:05:42;10.47;;;5.17;;
10890;SDS011;5498;50.928;11.598;2022-12-18T08:08:44;14.30;;;3.97;;
10890;SDS011;5498;50.928;11.598;2022-12-18T08:11:46;9.03;;;5.03;;
10890;SDS011;5498;50.928;11.598;2022-12-18T08:14:48;6.53;;;4.60;;
10890;SDS011;5498;50.928;11.598;2022-12-18T08:17:50;7.57;;;3.60;;
10890;SDS011;5498;50.928;11.598;2022-12-18T08:20:53;7.70;;;4.33;;
10890;SDS011;5498;50.928;11.598;2022-12-18T08:23:57;11.37;;;4.10;;
10890;SDS011;5498;50.928;11.598;2022-12-18T08:27:01;9.90;;;4.60;;
10890;SDS011;5498;50.928;11.598;2022-12-18T08:30:03;10.40;;;4.73;;
10890;SDS011;5498;50.928;11.598;2022-12-18T08:33:07;15.93;;;8.37;;
10890;SDS011;5498;50.928;11.598;2022-12-18T08:36:10;10.20;;;4.80;;
10890;SDS011;5498;50.928;11.598;2022-12-18T08:39:12;12.73;;;5.37;;
10890;SDS011;5498;50.928;11.598;2022-12-18T08:42:16;8.20;;;4.70;;
10890;SDS011;5498;50.928;11.598;2022-12-18T08:45:35;8.23;;;5.17;;
10890;SDS011;5498;50.928;11.598;2022-12-18T08:48:37;8.97;;;4.80;;
10890;SDS011;5498;50.928;11.598;2022-12-18T08:51:41;11.27;;;5.20;;
10890;SDS011;5498;50.928;11.598;2022-12-18T08:54:43;8.63;;;5.33;;
10890;SDS011;5498;50.928;11.598;2022-12-18T08:57:47;6.93;;;4.40;;
10890;SDS011;5498;50.928;11.598;2022-12-18T09:00:50;10.70;;;7.27;;
10890;SDS011;5498;50.928;11.598;2022-12-18T09:03:52;9.80;;;4.40;;
10890;SDS011;5498;50.928;11.598;2022-12-18T09:06:57;7.87;;;3.90;;
10890;SDS011;5498;50.928;11.598;2022-12-18T09:09:58;9.10;;;5.20;;
10890;SDS011;5498;50.928;11.598;2022-12-18T09:13:00;8.93;;;4.60;;
10890;SDS011;5498;50.928;11.598;2022-12-18T09:16:03;11.43;;;4.30;;
10890;SDS011;5498;50.928;11.598;2022-12-18T09:19:08;9.67;;;5.50;;
10890;SDS011;5498;50.928;11.598;2022-12-18T09:22:15;13.37;;;4.47;;
10890;SDS011;5498;50.928;11.598;2022-12-18T09:25:17;14.33;;;4.97;;
10890;SDS011;5498;50.928;11.598;2022-12-18T09:28:19;8.30;;;5.50;;
10890;SDS011;5498;50.928;11.598;2022-12-18T09:31:22;10.00;;;5.33;;
10890;SDS011;5498;50.928;11.598;2022-12-18T09:34:25;11.03;;;4.80;;
10890;SDS011;5498;50.928;11.598;2022-12-18T09:37:29;12.37;;;5.63;;
10890;SDS011;5498;50.928;11.598;2022-12-18T09:40:32;11.53;;;5.07;;
10890;SDS011;5498;50.928;11.598;2022-12-18T09:43:42;19.92;;;8.75;;
10890;SDS011;5498;50.928;11.598;2022-12-18T09:46:50;10.73;;;5.93;;
10890;SDS011;5498;50.928;11.598;2022-12-18T09:50:01;17.93;;;6.00;;
10890;SDS011;5498;50.928;11.598;2022-12-18T09:53:10;10.93;;;5.73;;
10890;SDS011;5498;50.928;11.598;2022-12-18T09:56:18;9.33;;;4.87;;
10890;SDS011;5498;50.928;11.598;2022-12-18T09:59:24;10.50;;;5.10;;
10890;SDS011;5498;50.928;11.598;2022-12-18T10:02:31;12.27;;;5.97;;
10890;SDS011;5498;50.928;11.598;2022-12-18T10:05:34;18.77;;;5.87;;
10890;SDS011;5498;50.928;11.598;2022-12-18T10:08:47;11.87;;;5.40;;
10890;SDS011;5498;50.928;11.598;2022-12-18T10:11:58;18.13;;;6.10;;
10890;SDS011;5498;50.928;11.598;2022-12-18T10:15:11;10.40;;;6.00;;
10890;SDS011;5498;50.928;11.598;2022-12-18T10:18:23;14.17;;;5.87;;
10890;SDS011;5498;50.928;11.598;2022-12-18T10:21:36;10.97;;;5.33;;
10890;SDS011;5498;50.928;11.598;2022-12-18T10:24:49;7.30;;;4.40;;
10890;SDS011;5498;50.928;11.598;2022-12-18T10:27:57;14.33;;;6.03;;
10890;SDS011;5498;50.928;11.598;2022-12-18T10:31:12;23.17;;;10.93;;
10890;SDS011;5498;50.928;11.598;2022-12-18T10:34:18;9.83;;;5.60;;
10890;SDS011;5498;50.928;11.598;2022-12-18T10:37:21;53.20;;;19.80;;
10890;SDS011;5498;50.928;11.598;2022-12-18T10:40:26;17.33;;;7.80;;
10890;SDS011;5498;50.928;11.598;2022-12-18T10:43:29;63.60;;;20.43;;
10890;SDS011;5498;50.928;11.598;2022-12-18T10:46:33;16.50;;;6.97;;
10890;SDS011;5498;50.928;11.598;2022-12-18T10:49:38;16.60;;;7.17;;
10890;SDS011;5498;50.928;11.598;2022-12-18T10:52:55;16.17;;;6.77;;
10890;SDS011;5498;50.928;11.598;2022-12-18T10:56:02;13.47;;;6.37;;
10890;SDS011;5498;50.928;11.598;2022-12-18T10:59:09;13.40;;;5.73;;
10890;SDS011;5498;50.928;11.598;2022-12-18T11:02:23;12.57;;;6.57;;
10890;SDS011;5498;50.928;11.598;2022-12-18T11:05:30;15.27;;;6.60;;
10890;SDS011;5498;50.928;11.598;2022-12-18T11:08:34;16.13;;;7.03;;
10890;SDS011;5498;50.928;11.598;2022-12-18T11:11:38;17.03;;;7.07;;
10890;SDS011;5498;50.928;11.598;2022-12-18T11:14:42;10.90;;;6.83;;
10890;SDS011;5498;50.928;11.598;2022-12-18T11:17:48;14.07;;;7.63;;
10890;SDS011;5498;50.928;11.598;2022-12-18T11:20:53;17.10;;;6.67;;
10890;SDS011;5498;50.928;11.598;2022-12-18T11:23:58;13.17;;;6.60;;
10890;SDS011;5498;50.928;11.598;2022-12-18T11:27:03;16.50;;;7.40;;
10890;SDS011;5498;50.928;11.598;2022-12-18T11:30:08;12.67;;;7.27;;
10890;SDS011;5498;50.928;11.598;2022-12-18T11:33:21;13.83;;;6.53;;
10890;SDS011;5498;50.928;11.598;2022-12-18T11:36:24;19.43;;;8.13;;
10890;SDS011;5498;50.928;11.598;2022-12-18T11:39:31;13.97;;;7.87;;
10890;SDS011;5498;50.928;11.598;2022-12-18T11:42:41;20.13;;;7.70;;
10890;SDS011;5498;50.928;11.598;2022-12-18T11:45:51;17.30;;;7.20;;
10890;SDS011;5498;50.928;11.598;2022-12-18T11:48:57;13.53;;;6.73;;
10890;SDS011;5498;50.928;11.598;2022-12-18T11:52:10;15.67;;;6.70;;
10890;SDS011;5498;50.928;11.598;2022-12-18T11:55:27;17.70;;;8.27;;
10890;SDS011;5498;50.928;11.598;2022-12-18T11:59:00;16.20;;;8.53;;
10890;SDS011;5498;50.928;11.598;2022-12-18T12:02:20;12.73;;;7.60;;
10890;SDS011;5498;50.928;11.598;2022-12-18T12:05:54;17.17;;;8.60;;
10890;SDS011;5498;50.928;11.598;2022-12-18T12:09:11;16.00;;;8.30;;
10890;SDS011;5498;50.928;11.598;2022-12-18T12:12:30;15.87;;;7.97;;
10890;SDS011;5498;50.928;11.598;2022-12-18T12:15:50;16.47;;;8.27;;
10890;SDS011;5498;50.928;11.598;2022-12-18T12:19:10;14.70;;;8.63;;
10890;SDS011;5498;50.928;11.598;2022-12-18T12:22:32;15.97;;;8.27;;
10890;SDS011;5498;50.928;11.598;2022-12-18T12:25:44;14.57;;;8.40;;
10890;SDS011;5498;50.928;11.598;2022-12-18T12:32:33;26.83;;;10.77;;
10890;SDS011;5498;50.928;11.598;2022-12-18T12:35:56;23.53;;;12.33;;
10890;SDS011;5498;50.928;11.598;2022-12-18T12:39:08;30.77;;;13.90;;
10890;SDS011;5498;50.928;11.598;2022-12-18T12:42:16;44.33;;;19.60;;
10890;SDS011;5498;50.928;11.598;2022-12-18T12:45:44;164.47;;;49.90;;
10890;SDS011;5498;50.928;11.598;2022-12-18T12:48:53;30.90;;;14.83;;
10890;SDS011;5498;50.928;11.598;2022-12-18T12:52:03;18.50;;;10.57;;
10890;SDS011;5498;50.928;11.598;2022-12-18T12:55:12;53.33;;;22.13;;
10890;SDS011;5498;50.928;11.598;2022-12-18T12:58:19;28.00;;;13.83;;
10890;SDS011;5498;50.928;11.598;2022-12-18T13:01:34;49.67;;;19.63;;
10890;SDS011;5498;50.928;11.598;2022-12-18T13:04:44;66.47;;;24.63;;
10890;SDS011;5498;50.928;11.598;2022-12-18T13:07:54;58.87;;;23.20;;
10890;SDS011;5498;50.928;11.598;2022-12-18T13:11:00;64.43;;;26.50;;
10890;SDS011;5498;50.928;11.598;2022-12-18T13:14:21;49.60;;;25.07;;
10890;SDS011;5498;50.928;11.598;2022-12-18T13:17:28;35.30;;;21.23;;
10890;SDS011;5498;50.928;11.598;2022-12-18T13:20:34;43.40;;;27.03;;
10890;SDS011;5498;50.928;11.598;2022-12-18T13:23:37;45.80;;;25.40;;
10890;SDS011;5498;50.928;11.598;2022-12-18T13:26:40;42.97;;;26.50;;
10890;SDS011;5498;50.928;11.598;2022-12-18T13:29:42;44.60;;;29.63;;
10890;SDS011;5498;50.928;11.598;2022-12-18T13:32:46;43.87;;;30.57;;
10890;SDS011;5498;50.928;11.598;2022-12-18T13:36:09;39.50;;;28.63;;
10890;SDS011;5498;50.928;11.598;2022-12-18T13:39:31;41.63;;;29.87;;
10890;SDS011;5498;50.928;11.598;2022-12-18T13:42:38;49.77;;;32.97;;
10890;SDS011;5498;50.928;11.598;2022-12-18T13:46:03;46.27;;;31.53;;
10890;SDS011;5498;50.928;11.598;2022-12-18T13:49:21;33.93;;;24.97;;
10890;SDS011;5498;50.928;11.598;2022-12-18T13:52:27;28.73;;;23.47;;
10890;SDS011;5498;50.928;11.598;2022-12-18T13:55:37;40.07;;;26.17;;
10890;SDS011;5498;50.928;11.598;2022-12-18T13:58:39;35.13;;;22.67;;
10890;SDS011;5498;50.928;11.598;2022-12-18T14:01:42;42.57;;;24.50;;
10890;SDS011;5498;50.928;11.598;2022-12-18T14:04:46;48.10;;;28.83;;
10890;SDS011;5498;50.928;11.598;2022-12-18T14:07:51;43.77;;;31.53;;
10890;SDS011;5498;50.928;11.598;2022-12-18T14:10:54;40.73;;;30.43;;
10890;SDS011;5498;50.928;11.598;2022-12-18T14:13:58;40.57;;;26.83;;
10890;SDS011;5498;50.928;11.598;2022-12-18T14:17:01;43.63;;;29.83;;
10890;SDS011;5498;50.928;11.598;2022-12-18T14:20:03;46.83;;;31.00;;
10890;SDS011;5498;50.928;11.598;2022-12-18T14:23:32;39.73;;;29.03;;
10890;SDS011;5498;50.928;11.598;2022-12-18T14:26:36;53.30;;;34.50;;
10890;SDS011;5498;50.928;11.598;2022-12-18T14:29:38;44.23;;;30.63;;
10890;SDS011;5498;50.928;11.598;2022-12-18T14:32:50;59.90;;;37.30;;
10890;SDS011;5498;50.928;11.598;2022-12-18T14:36:03;38.70;;;26.23;;
10890;SDS011;5498;50.928;11.598;2022-12-18T14:39:17;51.47;;;34.00;;
10890;SDS011;5498;50.928;11.598;2022-12-18T14:42:20;70.23;;;39.80;;
10890;SDS011;5498;50.928;11.598;2022-12-18T14:45:39;90.03;;;46.30;;
10890;SDS011;5498;50.928;11.598;2022-12-18T14:48:44;84.67;;;44.50;;
10890;SDS011;5498;50.928;11.598;2022-12-18T14:51:49;84.57;;;45.03;;
10890;SDS011;5498;50.928;11.598;2022-12-18T14:54:56;85.90;;;45.60;;
10890;SDS011;5498;50.928;11.598;2022-12-18T14:57:58;86.50;;;46.97;;
10890;SDS011;5498;50.928;11.598;2022-12-18T15:01:00;76.63;;;42.27;;
10890;SDS011;5498;50.928;11.598;2022-12-18T15:04:02;67.87;;;39.00;;
10890;SDS011;5498;50.928;11.598;2022-12-18T15:07:21;125.27;;;53.50;;
10890;SDS011;5498;50.928;11.598;2022-12-18T15:10:26;109.27;;;51.63;;
10890;SDS011;5498;50.928;11.598;2022-12-18T15:13:30;97.37;;;48.33;;
10890;SDS011;5498;50.928;11.598;2022-12-18T15:16:32;115.23;;;53.30;;
10890;SDS011;5498;50.928;11.598;2022-12-18T15:19:36;113.43;;;53.83;;
10890;SDS011;5498;50.928;11.598;2022-12-18T15:22:40;147.50;;;58.83;;
10890;SDS011;5498;50.928;11.598;2022-12-18T15:25:44;155.93;;;69.43;;
10890;SDS011;5498;50.928;11.598;2022-12-18T15:28:49;133.00;;;56.97;;
10890;SDS011;5498;50.928;11.598;2022-12-18T15:31:59;121.30;;;52.23;;
10890;SDS011;5498;50.928;11.598;2022-12-18T15:35:07;152.67;;;57.67;;
10890;SDS011;5498;50.928;11.598;2022-12-18T15:38:17;144.67;;;55.53;;
10890;SDS011;5498;50.928;11.598;2022-12-18T15:41:21;141.20;;;55.77;;
10890;SDS011;5498;50.928;11.598;2022-12-18T15:44:24;140.00;;;55.73;;
10890;SDS011;5498;50.928;11.598;2022-12-18T15:47:27;130.80;;;54.90;;
10890;SDS011;5498;50.928;11.598;2022-12-18T15:50:29;124.77;;;52.23;;
10890;SDS011;5498;50.928;11.598;2022-12-18T15:53:32;131.93;;;55.03;;
10890;SDS011;5498;50.928;11.598;2022-12-18T15:56:36;100.87;;;44.13;;
10890;SDS011;5498;50.928;11.598;2022-12-18T15:59:55;120.27;;;49.47;;
10890;SDS011;5498;50.928;11.598;2022-12-18T16:02:58;125.67;;;50.50;;
10890;SDS011;5498;50.928;11.598;2022-12-18T16:06:00;109.00;;;46.97;;
10890;SDS011;5498;50.928;11.598;2022-12-18T16:09:02;99.53;;;45.57;;
10890;SDS011;5498;50.928;11.598;2022-12-18T16:12:05;72.20;;;37.50;;
10890;SDS011;5498;50.928;11.598;2022-12-18T16:15:15;85.93;;;42.53;;
10890;SDS011;5498;50.928;11.598;2022-12-18T16:18:18;77.83;;;37.97;;
10890;SDS011;5498;50.928;11.598;2022-12-18T16:21:20;84.17;;;41.67;;
10890;SDS011;5498;50.928;11.598;2022-12-18T16:24:23;93.33;;;43.00;;
10890;SDS011;5498;50.928;11.598;2022-12-18T16:27:27;112.10;;;48.00;;
10890;SDS011;5498;50.928;11.598;2022-12-18T16:30:30;97.27;;;45.03;;
10890;SDS011;5498;50.928;11.598;2022-12-18T16:33:33;116.80;;;47.90;;
10890;SDS011;5498;50.928;11.598;2022-12-18T16:36:35;130.77;;;52.83;;
10890;SDS011;5498;50.928;11.598;2022-12-18T16:39:37;133.40;;;52.30;;
10890;SDS011;5498;50.928;11.598;2022-12-18T16:42:42;150.60;;;56.13;;
10890;SDS011;5498;50.928;11.598;2022-12-18T16:45:46;144.10;;;56.63;;
10890;SDS011;5498;50.928;11.598;2022-12-18T16:48:48;146.30;;;55.53;;
10890;SDS011;5498;50.928;11.598;2022-12-18T16:51:50;152.73;;;57.10;;
10890;SDS011;5498;50.928;11.598;2022-12-18T16:54:52;173.20;;;63.20;;
10890;SDS011;5498;50.928;11.598;2022-12-18T16:57:55;171.20;;;63.77;;
10890;SDS011;5498;50.928;11.598;2022-12-18T17:00:57;172.27;;;64.00;;
10890;SDS011;5498;50.928;11.598;2022-12-18T17:04:00;165.43;;;60.90;;
10890;SDS011;5498;50.928;11.598;2022-12-18T17:07:04;157.50;;;60.23;;
10890;SDS011;5498;50.928;11.598;2022-12-18T17:10:06;148.77;;;58.80;;
10890;SDS011;5498;50.928;11.598;2022-12-18T17:13:11;141.67;;;58.57;;
10890;SDS011;5498;50.928;11.598;2022-12-18T17:16:13;133.93;;;55.50;;
10890;SDS011;5498;50.928;11.598;2022-12-18T17:19:16;145.63;;;60.10;;
10890;SDS011;5498;50.928;11.598;2022-12-18T17:22:18;132.53;;;54.13;;
10890;SDS011;5498;50.928;11.598;2022-12-18T17:25:22;118.83;;;52.90;;
10890;SDS011;5498;50.928;11.598;2022-12-18T17:28:25;124.53;;;56.33;;
10890;SDS011;5498;50.928;11.598;2022-12-18T17:31:29;121.37;;;55.30;;
10890;SDS011;5498;50.928;11.598;2022-12-18T17:34:33;121.67;;;55.27;;
10890;SDS011;5498;50.928;11.598;2022-12-18T17:37:36;125.07;;;56.77;;
10890;SDS011;5498;50.928;11.598;2022-12-18T17:40:39;139.70;;;58.10;;
10890;SDS011;5498;50.928;11.598;2022-12-18T17:43:43;141.60;;;56.97;;
10890;SDS011;5498;50.928;11.598;2022-12-18T17:46:45;136.00;;;57.13;;
10890;SDS011;5498;50.928;11.598;2022-12-18T17:49:47;154.63;;;59.33;;
10890;SDS011;5498;50.928;11.598;2022-12-18T17:52:54;159.13;;;61.60;;
10890;SDS011;5498;50.928;11.598;2022-12-18T17:55:56;140.03;;;59.97;;
10890;SDS011;5498;50.928;11.598;2022-12-18T17:59:01;149.63;;;60.63;;
10890;SDS011;5498;50.928;11.598;2022-12-18T18:02:04;149.17;;;60.93;;
10890;SDS011;5498;50.928;11.598;2022-12-18T18:05:06;152.70;;;60.50;;
10890;SDS011;5498;50.928;11.598;2022-12-18T18:08:08;145.27;;;61.63;;
10890;SDS011;5498;50.928;11.598;2022-12-18T18:11:11;159.90;;;64.27;;
10890;SDS011;5498;50.928;11.598;2022-12-18T18:14:34;173.27;;;67.50;;
10890;SDS011;5498;50.928;11.598;2022-12-18T18:17:36;178.77;;;67.97;;
10890;SDS011;5498;50.928;11.598;2022-12-18T18:20:38;202.70;;;70.70;;
10890;SDS011;5498;50.928;11.598;2022-12-18T18:23:40;221.20;;;71.13;;